Time;durP1;ratioP1;P1;durP2;ratioP2;P2;SDS_P1;SDS_P2;PMS_P1;PMS_P2;Temp;Humidity;BMP_temperature;BMP_pressure;BME280_temperature;BME280_humidity;BME280_pressure;Samples;Min_cycle;Max_cycle;Signal;HPM_P1;HPM_P2
2023/09/02 00:01:43;;;;;;;4.13;3.80;;;19.90;78.80;;;;;;4187021;28;20055;-40
2023/09/02 00:04:24;;;;;;;4.70;4.30;;;19.90;78.90;;;;;;4184973;28;20059;-42
2023/09/02 00:07:06;;;;;;;4.00;3.70;;;19.90;78.90;;;;;;4186535;28;20064;-40
2023/09/02 00:09:47;;;;;;;4.13;3.72;;;19.90;79.00;;;;;;4186537;28;20050;-40
2023/09/02 00:12:28;;;;;;;4.53;3.97;;;19.90;79.20;;;;;;4184337;28;20056;-40
2023/09/02 00:15:10;;;;;;;4.03;3.72;;;19.90;79.20;;;;;;4186689;28;20101;-40
2023/09/02 00:17:50;;;;;;;5.82;4.20;;;19.90;79.30;;;;;;4186495;28;20526;-40
2023/09/02 00:20:32;;;;;;;4.22;3.92;;;19.80;79.30;;;;;;4170179;28;20407;-40
2023/09/02 00:23:14;;;;;;;4.53;4.13;;;19.80;79.30;;;;;;4167236;28;20076;-40
2023/09/02 00:25:56;;;;;;;5.85;4.47;;;19.80;79.30;;;;;;4170268;28;20048;-40
2023/09/02 00:28:36;;;;;;;4.97;4.47;;;19.80;79.30;;;;;;4173244;28;20067;-40
2023/09/02 00:31:17;;;;;;;5.30;4.80;;;19.80;79.30;;;;;;4168649;28;20048;-40
2023/09/02 00:33:58;;;;;;;5.53;4.93;;;19.80;79.30;;;;;;4168676;28;20075;-40
2023/09/02 00:36:39;;;;;;;4.40;4.10;;;19.80;79.50;;;;;;4169413;28;20056;-40
2023/09/02 00:39:21;;;;;;;6.85;4.93;;;19.80;79.60;;;;;;4182071;28;20052;-40
2023/09/02 00:42:06;;;;;;;5.03;4.32;;;19.80;79.60;;;;;;4186212;28;20056;-41
2023/09/02 00:44:48;;;;;;;6.35;4.55;;;19.80;79.60;;;;;;4186106;28;20047;-40
2023/09/02 00:47:29;;;;;;;4.85;4.28;;;19.80;79.60;;;;;;4167868;28;20087;-40
2023/09/02 00:50:11;;;;;;;4.68;4.35;;;19.70;80.60;;;;;;4185991;28;20055;-40
2023/09/02 00:52:52;;;;;;;5.10;3.97;;;19.70;79.70;;;;;;4187661;28;20059;-44
2023/09/02 00:55:35;;;;;;;4.57;4.22;;;19.70;79.70;;;;;;4187882;28;20063;-40
2023/09/02 00:58:17;;;;;;;5.80;5.20;;;19.70;79.60;;;;;;4188211;28;20087;-40
2023/09/02 01:01:00;;;;;;;6.32;4.68;;;19.70;79.60;;;;;;4188294;28;20055;-40
2023/09/02 01:03:43;;;;;;;5.10;4.55;;;19.70;79.70;;;;;;4186423;28;20067;-40
2023/09/02 01:06:24;;;;;;;5.97;5.38;;;19.70;79.70;;;;;;4182971;28;20178;-41
2023/09/02 01:09:06;;;;;;;4.80;4.40;;;19.70;79.90;;;;;;4188309;28;20102;-40
2023/09/02 01:11:49;;;;;;;5.63;5.10;;;19.70;79.90;;;;;;4189683;28;20700;-43
2023/09/02 01:14:30;;;;;;;5.55;4.95;;;19.70;79.90;;;;;;4188862;28;20064;-42
2023/09/02 01:17:11;;;;;;;5.13;4.80;;;19.70;79.90;;;;;;4189098;28;20384;-45
2023/09/02 01:19:56;;;;;;;6.50;4.65;;;19.70;79.70;;;;;;4187273;28;20059;-45
2023/09/02 01:23:00;;;;;;;5.78;4.22;;;19.70;79.60;;;;;;4188814;28;20491;-43
2023/09/02 01:25:57;;;;;;;6.28;4.75;;;19.70;79.60;;;;;;4188337;28;20423;-44
2023/09/02 01:28:43;;;;;;;7.65;5.15;;;19.70;80.00;;;;;;4187564;28;20441;-45
2023/09/02 01:31:25;;;;;;;4.45;4.05;;;19.60;80.10;;;;;;4187506;28;20593;-43
2023/09/02 01:34:11;;;;;;;5.70;4.63;;;19.60;80.00;;;;;;4173966;28;20052;-47
2023/09/02 01:36:53;;;;;;;4.93;4.53;;;19.60;80.00;;;;;;4166702;28;20052;-43
2023/09/02 01:39:36;;;;;;;4.93;4.53;;;19.60;80.90;;;;;;4196092;28;20137;-43
2023/09/02 01:42:18;;;;;;;5.00;4.22;;;19.60;80.00;;;;;;4189001;28;20051;-44
2023/09/02 01:45:01;;;;;;;4.60;4.30;;;19.60;79.90;;;;;;4198811;28;20051;-44
2023/09/02 01:47:43;;;;;;;5.30;4.88;;;19.60;79.90;;;;;;4187412;28;20054;-45
2023/09/02 01:50:27;;;;;;;6.55;4.88;;;19.60;80.10;;;;;;4186593;28;20051;-45
2023/09/02 01:53:09;;;;;;;5.30;4.88;;;19.60;80.10;;;;;;4187159;28;20059;-43
2023/09/02 01:55:50;;;;;;;6.90;4.50;;;19.60;80.10;;;;;;4184165;28;20062;-43
2023/09/02 01:58:32;;;;;;;4.80;4.40;;;19.60;80.30;;;;;;4187766;28;20060;-43
2023/09/02 02:01:15;;;;;;;4.90;4.50;;;19.60;81.10;;;;;;4187599;28;20384;-43
2023/09/02 02:04:07;;;;;;;4.85;4.40;;;19.60;80.20;;;;;;4188944;28;20058;-43
2023/09/02 02:06:52;;;;;;;4.78;4.15;;;19.60;80.10;;;;;;4170660;28;20190;-44
2023/09/02 02:09:39;;;;;;;5.30;4.20;;;19.50;80.10;;;;;;4177819;28;20052;-43
2023/09/02 02:12:21;;;;;;;4.80;4.05;;;19.60;80.10;;;;;;4171799;28;20142;-43
2023/09/02 02:15:02;;;;;;;4.43;4.03;;;19.60;80.10;;;;;;4171919;28;20675;-43
2023/09/02 02:17:44;;;;;;;5.25;4.78;;;19.50;80.00;;;;;;4172135;28;20514;-44
2023/09/02 02:20:30;;;;;;;5.18;4.07;;;19.50;79.90;;;;;;4171522;28;20103;-44
2023/09/02 02:23:12;;;;;;;4.78;4.15;;;19.50;79.90;;;;;;4176263;28;20059;-43
2023/09/02 02:25:58;;;;;;;4.63;4.05;;;19.50;80.00;;;;;;4187215;28;20133;-44
2023/09/02 02:28:39;;;;;;;5.07;4.05;;;19.50;79.90;;;;;;4187488;28;20056;-46
2023/09/02 02:31:21;;;;;;;4.97;4.20;;;19.50;79.90;;;;;;4188406;28;20047;-43
2023/09/02 02:34:03;;;;;;;9.02;4.03;;;19.50;80.70;;;;;;4188454;28;20121;-40
2023/09/02 02:36:44;;;;;;;5.57;4.60;;;19.50;79.80;;;;;;4188190;28;20170;-40
2023/09/02 02:39:25;;;;;;;5.65;3.83;;;19.50;79.80;;;;;;4188457;28;20090;-42
2023/09/02 02:42:07;;;;;;;4.38;4.07;;;19.50;79.90;;;;;;4188035;28;20514;-42
2023/09/02 02:44:47;;;;;;;4.80;4.32;;;19.50;79.90;;;;;;4187291;28;20071;-41
2023/09/02 02:47:28;;;;;;;5.32;4.60;;;19.40;79.70;;;;;;4186942;28;20395;-43
2023/09/02 02:50:11;;;;;;;4.82;4.43;;;19.40;80.40;;;;;;4186567;28;20499;-46
2023/09/02 02:52:54;;;;;;;4.30;4.00;;;19.50;79.90;;;;;;4185951;28;20093;-43
2023/09/02 02:55:35;;;;;;;4.32;4.00;;;19.50;79.90;;;;;;4187922;28;20114;-48
2023/09/02 02:58:17;;;;;;;4.22;3.92;;;19.40;79.80;;;;;;4187653;28;20186;-43
2023/09/02 03:01:04;;;;;;;5.57;4.03;;;19.40;79.80;;;;;;4187874;28;20507;-44
2023/09/02 03:03:45;;;;;;;4.97;4.47;;;19.40;79.50;;;;;;4187845;28;20055;-43
2023/09/02 03:06:27;;;;;;;5.50;4.85;;;19.40;79.30;;;;;;4198885;28;20186;-43
2023/09/02 03:09:08;;;;;;;4.93;4.47;;;19.40;79.40;;;;;;4187446;28;20055;-43
2023/09/02 03:11:49;;;;;;;9.10;4.70;;;19.40;79.50;;;;;;4187581;28;20475;-43
2023/09/02 03:14:30;;;;;;;6.22;4.63;;;19.40;79.30;;;;;;4186220;28;20523;-46
2023/09/02 03:17:12;;;;;;;5.60;4.72;;;19.40;79.50;;;;;;4186788;28;20195;-43
2023/09/02 03:19:53;;;;;;;6.05;4.78;;;19.40;79.70;;;;;;4186113;28;20048;-43
2023/09/02 03:22:35;;;;;;;4.57;4.28;;;19.30;79.70;;;;;;4175062;28;20051;-44
2023/09/02 03:25:16;;;;;;;5.40;4.85;;;19.40;79.80;;;;;;4186863;28;20060;-45
2023/09/02 03:27:57;;;;;;;;;;;19.30;79.80;;;;;;4186669;28;20056;-44
2023/09/02 03:30:38;;;;;;;5.80;5.10;;;19.30;79.60;;;;;;4185820;28;19928;-43
2023/09/02 03:33:21;;;;;;;10.45;4.78;;;19.30;80.00;;;;;;4197599;28;20125;-45
2023/09/02 03:36:02;;;;;;;5.13;4.63;;;19.30;79.80;;;;;;4187685;28;20067;-45
2023/09/02 03:38:44;;;;;;;5.60;4.90;;;19.30;79.70;;;;;;4168221;28;20063;-43
2023/09/02 03:41:25;;;;;;;6.05;5.25;;;19.30;79.70;;;;;;4169833;28;20075;-44
2023/09/02 03:44:06;;;;;;;5.72;5.00;;;19.30;79.80;;;;;;4170082;28;20507;-43
2023/09/02 03:46:47;;;;;;;8.57;5.55;;;19.30;80.00;;;;;;4181625;28;20189;-43
2023/09/02 03:49:30;;;;;;;5.20;4.70;;;19.30;80.10;;;;;;4186382;28;20048;-47
2023/09/02 03:52:10;;;;;;;7.85;6.07;;;19.30;80.20;;;;;;4186657;28;20108;-43
2023/09/02 03:54:52;;;;;;;8.93;6.55;;;19.30;80.20;;;;;;4186045;28;20052;-45
2023/09/02 03:57:34;;;;;;;6.78;6.18;;;19.30;80.20;;;;;;4184632;28;20111;-45
2023/09/02 04:00:17;;;;;;;;;;;19.30;80.30;;;;;;4186237;28;20138;-47
2023/09/02 04:02:58;;;;;;;6.88;6.28;;;19.30;80.40;;;;;;4186008;28;19978;-44
2023/09/02 04:05:39;;;;;;;;;;;19.20;80.90;;;;;;4187291;28;20055;-45
2023/09/02 04:08:23;;;;;;;7.20;6.60;;;19.20;80.90;;;;;;4186578;28;20045;-45
2023/09/02 04:11:05;;;;;;;7.18;6.00;;;19.20;81.20;;;;;;4185935;28;20115;-47
2023/09/02 04:13:46;;;;;;;8.07;6.30;;;19.20;81.10;;;;;;4187094;28;20410;-46
2023/09/02 04:16:27;;;;;;;6.78;6.18;;;19.20;81.00;;;;;;4186279;28;20055;-44
2023/09/02 04:19:09;;;;;;;7.10;6.40;;;19.20;81.00;;;;;;4186823;28;20071;-43
2023/09/02 04:21:53;;;;;;;6.47;5.88;;;19.20;81.00;;;;;;4188323;28;20059;-47
2023/09/02 04:24:34;;;;;;;6.80;6.20;;;19.20;81.10;;;;;;4190165;28;20079;-44
2023/09/02 04:27:16;;;;;;;6.90;6.22;;;19.10;81.10;;;;;;4187699;28;20075;-43
2023/09/02 04:29:57;;;;;;;6.28;5.68;;;19.20;81.20;;;;;;4190046;28;20054;-45
2023/09/02 04:32:38;;;;;;;6.70;6.05;;;19.20;81.20;;;;;;4189120;28;20125;-44
2023/09/02 04:35:20;;;;;;;7.75;6.95;;;19.10;81.20;;;;;;4176525;28;20495;-41
2023/09/02 04:38:02;;;;;;;7.30;6.60;;;19.10;81.30;;;;;;4188204;28;20116;-40
2023/09/02 04:40:44;;;;;;;;;;;19.20;81.20;;;;;;4188795;28;20070;-41
2023/09/02 04:43:27;;;;;;;10.18;6.90;;;19.20;81.10;;;;;;4200616;28;20435;-41
2023/09/02 04:46:08;;;;;;;8.50;6.38;;;19.20;82.10;;;;;;4190039;28;20051;-41
2023/09/02 04:48:54;;;;;;;6.68;6.07;;;19.10;81.00;;;;;;4188213;28;20055;-41
2023/09/02 04:51:35;;;;;;;7.50;6.13;;;19.10;81.20;;;;;;4167432;28;20399;-40
2023/09/02 04:54:17;;;;;;;7.70;6.90;;;19.10;81.40;;;;;;4185690;28;20063;-40
2023/09/02 04:56:58;;;;;;;9.23;7.05;;;19.10;81.50;;;;;;4188298;28;20055;-41
2023/09/02 04:59:41;;;;;;;7.78;6.95;;;19.10;81.50;;;;;;4186706;28;20040;-40
2023/09/02 05:02:23;;;;;;;7.78;6.63;;;19.10;81.60;;;;;;4188622;28;20083;-44
2023/09/02 05:05:04;;;;;;;7.07;6.43;;;19.10;81.80;;;;;;4188514;28;20455;-42
2023/09/02 05:07:45;;;;;;;10.50;7.20;;;19.20;81.90;;;;;;4187831;28;20446;-47
2023/09/02 05:10:27;;;;;;;8.57;7.10;;;19.20;81.80;;;;;;4188611;28;20055;-42
2023/09/02 05:13:08;;;;;;;8.57;6.55;;;19.20;81.60;;;;;;4185919;28;20059;-44
2023/09/02 05:15:52;;;;;;;8.88;6.13;;;19.20;81.50;;;;;;4176563;28;20060;-44
2023/09/02 05:18:33;;;;;;;8.57;7.03;;;19.20;81.40;;;;;;4199799;28;20083;-44
2023/09/02 05:21:14;;;;;;;8.52;7.63;;;19.20;81.40;;;;;;4187889;28;20115;-41
2023/09/02 05:23:55;;;;;;;7.15;6.47;;;19.20;81.40;;;;;;4185953;28;20125;-42
2023/09/02 05:26:36;;;;;;;8.07;7.28;;;19.20;82.30;;;;;;4186674;28;20067;-44
2023/09/02 05:29:17;;;;;;;7.00;6.40;;;19.10;81.50;;;;;;4176035;28;20055;-44
2023/09/02 05:32:00;;;;;;;9.10;6.68;;;19.20;81.50;;;;;;4172285;28;20384;-41
2023/09/02 05:34:41;;;;;;;8.93;6.97;;;19.20;81.70;;;;;;4172266;28;20510;-41
2023/09/02 05:37:22;;;;;;;;;;;19.20;81.80;;;;;;4172693;28;20097;-43
2023/09/02 05:40:03;;;;;;;7.38;6.78;;;19.10;81.80;;;;;;4172952;28;19928;-42
2023/09/02 05:42:44;;;;;;;8.60;7.70;;;19.10;81.90;;;;;;4172063;28;20178;-45
2023/09/02 05:45:25;;;;;;;7.68;6.97;;;19.10;81.60;;;;;;4189111;28;20506;-41
2023/09/02 05:48:08;;;;;;;9.75;6.68;;;19.10;81.40;;;;;;4188927;28;20056;-41
2023/09/02 05:50:50;;;;;;;8.10;7.30;;;19.10;81.20;;;;;;4188624;28;20109;-41
2023/09/02 05:53:31;;;;;;;7.05;6.45;;;19.10;81.40;;;;;;4188867;28;20101;-39
2023/09/02 05:56:12;;;;;;;8.73;6.97;;;19.10;81.60;;;;;;4188599;28;20068;-40
2023/09/02 05:58:53;;;;;;;10.95;8.27;;;19.10;81.70;;;;;;4172139;28;20048;-40
2023/09/02 06:01:34;;;;;;;8.43;6.80;;;19.10;81.80;;;;;;4172129;28;20067;-40
2023/09/02 06:04:17;;;;;;;8.15;7.35;;;19.10;82.00;;;;;;4177683;28;20407;-40
2023/09/02 06:06:58;;;;;;;9.40;7.65;;;19.10;82.00;;;;;;4177503;28;20131;-40
2023/09/02 06:09:39;;;;;;;12.70;7.80;;;19.10;82.00;;;;;;4188628;28;20121;-40
2023/09/02 06:12:20;;;;;;;11.13;7.63;;;19.10;82.00;;;;;;4171636;28;20055;-40
2023/09/02 06:15:01;;;;;;;11.18;8.55;;;19.10;82.10;;;;;;4184160;28;20427;-41
2023/09/02 06:17:42;;;;;;;9.93;8.93;;;19.10;83.00;;;;;;4187070;28;20067;-39
2023/09/02 06:20:24;;;;;;;12.18;9.90;;;19.00;82.10;;;;;;4188510;28;20063;-40
2023/09/02 06:23:05;;;;;;;11.95;10.52;;;19.10;82.20;;;;;;4188372;28;20186;-39
2023/09/02 06:25:55;;;;;;;12.23;10.40;;;19.10;81.90;;;;;;4188281;28;20051;-40
2023/09/02 06:28:37;;;;;;;17.05;11.73;;;19.10;82.80;;;;;;4188063;28;20134;-44
2023/09/02 06:31:18;;;;;;;13.60;11.45;;;19.10;82.20;;;;;;4188186;28;20056;-43
2023/09/02 06:33:59;;;;;;;15.52;12.32;;;19.10;82.30;;;;;;4178543;28;20071;-43
2023/09/02 06:36:44;;;;;;;13.32;10.77;;;19.10;82.50;;;;;;4187596;28;20496;-42
2023/09/02 06:39:25;;;;;;;15.55;11.75;;;19.10;82.70;;;;;;4171686;28;20764;-43
2023/09/02 06:42:07;;;;;;;17.48;12.48;;;19.10;83.20;;;;;;4185961;28;20075;-42
2023/09/02 06:44:52;;;;;;;14.73;12.02;;;19.10;83.50;;;;;;4197591;28;20198;-42
2023/09/02 06:47:34;;;;;;;16.42;11.93;;;19.10;83.70;;;;;;4187832;28;20187;-43
2023/09/02 06:50:15;;;;;;;16.23;12.77;;;19.20;83.80;;;;;;4180867;28;20044;-43
2023/09/02 06:52:57;;;;;;;16.73;12.52;;;19.20;83.80;;;;;;4171487;28;20052;-42
2023/09/02 06:55:38;;;;;;;14.50;11.60;;;19.20;83.80;;;;;;4175036;28;20055;-43
2023/09/02 06:58:19;;;;;;;13.23;11.93;;;19.20;83.70;;;;;;4180465;28;20105;-42
2023/09/02 07:01:00;;;;;;;14.32;11.77;;;19.20;83.70;;;;;;4186632;28;20388;-39
2023/09/02 07:03:41;;;;;;;14.90;11.85;;;19.20;83.70;;;;;;4173298;28;20059;-40
2023/09/02 07:06:23;;;;;;;18.77;12.55;;;19.20;83.80;;;;;;4176947;28;20055;-42
2023/09/02 07:09:05;;;;;;;16.73;12.10;;;19.20;83.90;;;;;;4186713;28;20043;-43
2023/09/02 07:11:46;;;;;;;15.88;13.13;;;19.20;84.00;;;;;;4181652;28;20185;-42
2023/09/02 07:14:28;;;;;;;15.15;12.40;;;19.20;84.10;;;;;;4187720;28;20490;-40
2023/09/02 07:17:09;;;;;;;16.98;12.50;;;19.20;84.10;;;;;;4187232;28;20078;-44
2023/09/02 07:19:50;;;;;;;15.10;13.00;;;19.20;84.20;;;;;;4174955;28;20404;-42
2023/09/02 07:22:31;;;;;;;17.52;13.63;;;19.20;84.20;;;;;;4180464;28;20093;-42
2023/09/02 07:25:13;;;;;;;16.85;12.98;;;19.30;84.40;;;;;;4187245;28;20063;-42
2023/09/02 07:27:54;;;;;;;17.63;13.32;;;19.30;84.60;;;;;;4187437;28;20059;-42
2023/09/02 07:30:38;;;;;;;18.10;13.05;;;19.30;84.80;;;;;;4187652;28;20415;-42
2023/09/02 07:33:20;;;;;;;26.13;15.07;;;19.40;85.20;;;;;;4187092;28;20186;-42
2023/09/02 07:36:07;;;;;;;18.30;14.40;;;19.40;85.40;;;;;;4186921;28;20059;-42
2023/09/02 07:38:49;;;;;;;25.25;14.60;;;19.50;85.80;;;;;;4185520;28;20528;-42
2023/09/02 07:41:31;;;;;;;19.83;14.80;;;19.40;85.80;;;;;;4170275;28;20047;-42
2023/09/02 07:44:12;;;;;;;18.13;14.43;;;19.50;86.20;;;;;;4170055;28;20044;-42
2023/09/02 07:46:54;;;;;;;20.58;15.05;;;19.50;86.20;;;;;;4170463;28;20138;-43
2023/09/02 07:49:35;;;;;;;21.92;16.00;;;19.60;86.20;;;;;;4173288;28;20577;-42
2023/09/02 07:52:16;;;;;;;21.85;15.73;;;19.60;86.30;;;;;;4187028;28;20637;-43
2023/09/02 07:54:57;;;;;;;24.17;16.40;;;19.60;86.20;;;;;;4186433;28;20129;-39
2023/09/02 07:57:39;;;;;;;20.60;15.55;;;19.70;86.30;;;;;;4188537;28;20046;-37
2023/09/02 08:00:20;;;;;;;19.00;15.68;;;19.70;86.50;;;;;;4190697;28;20445;-39
2023/09/02 08:03:02;;;;;;;19.45;14.95;;;19.80;86.50;;;;;;4190690;28;20085;-39
2023/09/02 08:05:43;;;;;;;17.95;14.63;;;19.90;86.10;;;;;;4190623;28;20130;-39
2023/09/02 08:08:24;;;;;;;18.38;15.82;;;19.90;85.60;;;;;;4190451;28;20601;-43
2023/09/02 08:11:05;;;;;;;17.80;13.38;;;20.00;86.50;;;;;;4190746;28;20060;-43
2023/09/02 08:13:48;;;;;;;17.45;13.95;;;20.00;85.30;;;;;;4190865;28;20051;-46
2023/09/02 08:16:29;;;;;;;16.80;14.77;;;20.10;85.20;;;;;;4190183;28;20075;-43
2023/09/02 08:19:10;;;;;;;17.27;14.27;;;20.10;84.90;;;;;;4177335;28;20054;-43
2023/09/02 08:21:51;;;;;;;15.80;13.30;;;20.10;84.60;;;;;;4189417;28;20052;-39
2023/09/02 08:24:32;;;;;;;15.25;13.65;;;20.10;84.60;;;;;;4190468;28;20431;-40
2023/09/02 08:27:13;;;;;;;15.00;11.80;;;20.10;84.70;;;;;;4189584;28;20192;-40
2023/09/02 08:29:56;;;;;;;17.40;12.52;;;20.20;84.60;;;;;;4187848;28;20095;-39
2023/09/02 08:32:37;;;;;;;15.07;11.10;;;20.20;84.70;;;;;;4185955;28;20064;-39
2023/09/02 08:35:18;;;;;;;14.88;11.50;;;20.20;84.40;;;;;;4189539;28;20055;-39
2023/09/02 08:37:59;;;;;;;16.08;10.50;;;20.30;84.30;;;;;;4188550;28;20469;-39
2023/09/02 08:40:43;;;;;;;;;;;20.30;84.00;;;;;;4190588;28;20391;-39
2023/09/02 08:43:26;;;;;;;11.80;10.18;;;20.30;83.80;;;;;;4189554;28;20378;-44
2023/09/02 08:46:11;;;;;;;14.65;10.40;;;20.30;83.50;;;;;;4188901;28;20055;-39
2023/09/02 08:48:53;;;;;;;11.25;9.85;;;20.40;83.50;;;;;;4176139;28;20118;-39
2023/09/02 08:51:35;;;;;;;13.63;9.73;;;20.40;83.20;;;;;;4189030;28;20133;-40
2023/09/02 08:54:16;;;;;;;;;;;20.40;82.80;;;;;;4172971;28;20067;-40
2023/09/02 08:56:58;;;;;;;14.27;9.95;;;20.50;82.80;;;;;;4188006;28;19927;-39
2023/09/02 08:59:39;;;;;;;13.80;9.10;;;20.50;82.60;;;;;;4186266;28;20052;-40
2023/09/02 09:02:21;;;;;;;13.25;9.65;;;20.50;82.30;;;;;;4188926;28;20187;-39
2023/09/02 09:05:03;;;;;;;16.10;10.98;;;20.60;82.10;;;;;;4189347;28;20190;-39
2023/09/02 09:07:45;;;;;;;10.82;9.15;;;20.60;81.80;;;;;;4188755;28;20396;-40
2023/09/02 09:10:26;;;;;;;12.88;10.38;;;20.60;81.80;;;;;;4189667;28;20051;-40
2023/09/02 09:13:10;;;;;;;11.40;9.48;;;20.70;82.00;;;;;;4189485;28;20560;-39
2023/09/02 09:15:55;;;;;;;12.93;9.68;;;20.70;81.90;;;;;;4189213;28;20051;-39
2023/09/02 09:18:38;;;;;;;14.40;9.63;;;20.70;81.60;;;;;;4189180;28;20056;-39
2023/09/02 09:21:19;;;;;;;11.85;9.82;;;20.70;81.50;;;;;;4189502;28;20063;-39
2023/09/02 09:24:00;;;;;;;11.65;8.02;;;20.80;81.60;;;;;;4173075;28;20048;-39
2023/09/02 09:26:43;;;;;;;12.85;9.63;;;20.80;81.30;;;;;;4157610;28;20487;-39
2023/09/02 09:29:24;;;;;;;13.93;9.45;;;20.80;81.10;;;;;;4171255;28;20416;-40
2023/09/02 09:32:10;;;;;;;14.20;9.20;;;20.80;81.00;;;;;;4178593;28;20051;-39
2023/09/02 09:34:52;;;;;;;14.05;9.25;;;20.90;80.90;;;;;;4173171;28;20060;-39
2023/09/02 09:37:53;;;;;;;13.05;9.82;;;20.90;80.20;;;;;;4172011;28;20407;-39
2023/09/02 09:40:38;;;;;;;15.13;9.35;;;20.90;79.80;;;;;;4183025;28;20060;-39
2023/09/02 09:43:23;;;;;;;12.93;8.43;;;21.00;79.80;;;;;;4172425;28;20102;-40
2023/09/02 09:46:04;;;;;;;15.25;10.30;;;21.00;80.00;;;;;;4170914;28;20106;-40
2023/09/02 09:48:49;;;;;;;12.95;9.25;;;21.10;79.60;;;;;;4172696;28;20055;-40
2023/09/02 09:51:31;;;;;;;14.23;9.30;;;21.10;79.10;;;;;;4176957;28;20166;-39
2023/09/02 09:54:12;;;;;;;11.82;9.10;;;21.10;79.20;;;;;;4188348;28;20141;-39
2023/09/02 09:56:53;;;;;;;13.20;8.88;;;21.20;79.10;;;;;;4186551;28;20059;-39
2023/09/02 09:59:35;;;;;;;13.52;9.05;;;21.20;79.00;;;;;;4186479;28;20101;-39
2023/09/02 10:02:19;;;;;;;12.95;8.80;;;21.20;78.80;;;;;;4186668;28;20071;-40
2023/09/02 10:05:01;;;;;;;10.45;8.65;;;21.30;78.80;;;;;;4184911;28;20186;-40
2023/09/02 10:07:58;;;;;;;10.95;8.65;;;21.30;78.40;;;;;;4186079;28;20406;-40
2023/09/02 10:10:40;;;;;;;13.13;9.65;;;21.40;77.70;;;;;;4186444;28;20055;-40
2023/09/02 10:13:22;;;;;;;11.60;10.13;;;21.40;77.50;;;;;;4187289;28;20412;-40
2023/09/02 10:16:03;;;;;;;11.82;9.50;;;21.40;77.00;;;;;;4171665;28;20396;-40
2023/09/02 10:18:46;;;;;;;11.55;9.65;;;21.40;76.80;;;;;;4181317;28;20052;-40
2023/09/02 10:21:31;;;;;;;11.15;9.27;;;21.40;76.80;;;;;;4188776;28;20051;-39
2023/09/02 10:24:15;;;;;;;11.93;9.18;;;21.40;76.50;;;;;;4186864;28;20510;-40
2023/09/02 10:26:59;;;;;;;14.82;10.13;;;21.40;76.50;;;;;;4187208;28;20055;-40
2023/09/02 10:29:43;;;;;;;13.38;9.25;;;21.40;76.90;;;;;;4186649;28;20130;-39
2023/09/02 10:32:26;;;;;;;10.35;8.95;;;21.40;77.10;;;;;;4186579;28;20099;-40
2023/09/02 10:35:12;;;;;;;10.32;9.20;;;21.30;77.90;;;;;;4187960;28;20419;-42
2023/09/02 10:37:55;;;;;;;10.75;8.65;;;21.40;76.50;;;;;;4187680;28;20051;-40
2023/09/02 10:40:40;;;;;;;11.88;8.90;;;21.40;76.40;;;;;;4184987;28;20059;-40
2023/09/02 10:43:21;;;;;;;10.15;8.15;;;21.40;77.10;;;;;;4176187;28;20119;-40
2023/09/02 10:46:03;;;;;;;;;;;21.30;77.20;;;;;;4171792;28;20060;-39
2023/09/02 10:48:46;;;;;;;12.93;8.10;;;21.40;77.20;;;;;;4171466;28;20391;-40
2023/09/02 10:51:27;;;;;;;11.63;8.18;;;21.30;77.10;;;;;;4180965;28;20060;-40
2023/09/02 10:54:08;;;;;;;10.23;8.65;;;21.40;77.00;;;;;;4187982;28;20051;-39
2023/09/02 10:56:52;;;;;;;;;;;21.40;76.90;;;;;;4188493;28;20223;-39
2023/09/02 10:59:32;;;;;;;7.82;6.93;;;21.40;76.80;;;;;;4188183;28;19927;-39
2023/09/02 11:02:14;;;;;;;8.25;7.28;;;21.40;77.00;;;;;;4186363;28;20098;-48
2023/09/02 11:04:59;;;;;;;;;;;21.40;77.10;;;;;;4188649;28;20120;-45
2023/09/02 11:07:43;;;;;;;11.65;7.10;;;21.40;77.10;;;;;;4186429;28;19930;-44
2023/09/02 11:10:44;;;;;;;;;;;21.40;76.50;;;;;;4188170;28;20059;-45
2023/09/02 11:13:27;;;;;;;7.80;6.82;;;21.50;76.30;;;;;;4186659;28;20025;-44
2023/09/02 11:16:13;;;;;;;7.53;6.57;;;21.40;76.40;;;;;;4187670;28;20055;-43
2023/09/02 11:18:54;;;;;;;8.48;6.30;;;21.50;75.70;;;;;;4187616;28;20047;-45
2023/09/02 11:21:40;;;;;;;6.65;5.63;;;21.50;75.20;;;;;;4187433;28;20055;-44
2023/09/02 11:24:22;;;;;;;9.15;6.15;;;21.60;75.30;;;;;;4187311;28;20075;-44
2023/09/02 11:27:04;;;;;;;8.35;6.40;;;21.60;75.30;;;;;;4187113;28;20072;-47
2023/09/02 11:29:46;;;;;;;;;;;21.60;75.50;;;;;;4187394;28;20569;-45
2023/09/02 11:32:27;;;;;;;7.47;5.40;;;21.70;75.50;;;;;;4186331;28;19927;-47
2023/09/02 11:35:09;;;;;;;6.75;5.03;;;21.70;74.70;;;;;;4187413;28;20585;-45
2023/09/02 11:37:50;;;;;;;8.00;5.60;;;21.70;74.50;;;;;;4187063;28;20510;-44
2023/09/02 11:40:31;;;;;;;6.63;4.80;;;21.70;74.60;;;;;;4170444;28;20426;-46
2023/09/02 11:43:18;;;;;;;7.38;5.10;;;21.70;74.60;;;;;;4170804;28;20059;-45
2023/09/02 11:46:03;;;;;;;5.28;4.78;;;21.80;74.60;;;;;;4176005;28;20059;-45
2023/09/02 11:48:44;;;;;;;6.07;5.00;;;21.80;74.70;;;;;;4187304;28;20181;-44
2023/09/02 11:51:25;;;;;;;8.60;5.30;;;21.70;74.50;;;;;;4187409;28;20055;-45
2023/09/02 11:54:07;;;;;;;5.68;4.78;;;21.80;74.40;;;;;;4186628;28;20072;-46
2023/09/02 11:56:56;;;;;;;7.60;4.88;;;21.80;74.50;;;;;;4182063;28;20051;-49
2023/09/02 11:59:37;;;;;;;5.47;4.90;;;21.70;74.40;;;;;;4186744;28;20061;-44
2023/09/02 12:02:21;;;;;;;7.90;4.40;;;21.80;74.60;;;;;;4187276;28;20522;-45
2023/09/02 12:05:03;;;;;;;5.60;4.60;;;21.80;74.60;;;;;;4187381;28;20053;-44
2023/09/02 12:07:46;;;;;;;8.27;5.20;;;21.80;74.70;;;;;;4186562;28;20055;-44
2023/09/02 12:10:27;;;;;;;6.47;4.60;;;21.80;74.60;;;;;;4185819;28;20576;-43
2023/09/02 12:13:10;;;;;;;6.78;5.50;;;21.90;74.10;;;;;;4187274;28;20110;-44
2023/09/02 12:15:52;;;;;;;7.30;4.80;;;21.90;73.50;;;;;;4186564;28;20402;-45
2023/09/02 12:18:35;;;;;;;4.68;3.80;;;21.90;72.90;;;;;;4186950;28;20047;-45
2023/09/02 12:21:16;;;;;;;6.55;3.92;;;21.90;72.60;;;;;;4186704;28;20510;-45
2023/09/02 12:23:57;;;;;;;;;;;21.90;73.10;;;;;;4181684;28;20097;-45
2023/09/02 12:26:46;;;;;;;7.27;4.00;;;21.90;73.20;;;;;;4183845;28;19931;-46
2023/09/02 12:29:27;;;;;;;5.38;3.90;;;21.90;73.30;;;;;;4194257;28;20499;-44
2023/09/02 12:32:10;;;;;;;3.22;2.92;;;21.90;73.20;;;;;;4187088;28;20052;-47
2023/09/02 12:34:52;;;;;;;5.75;3.67;;;21.90;73.30;;;;;;4170592;28;20191;-46
2023/09/02 12:37:33;;;;;;;3.97;3.42;;;21.90;73.40;;;;;;4185647;28;20048;-47
2023/09/02 12:40:16;;;;;;;4.38;3.97;;;21.90;73.20;;;;;;4184696;28;20067;-48
2023/09/02 12:42:57;;;;;;;5.20;3.72;;;21.90;73.30;;;;;;4186316;28;20047;-50
2023/09/02 12:45:40;;;;;;;3.28;3.05;;;21.90;73.40;;;;;;4189480;28;20106;-48
2023/09/02 12:48:21;;;;;;;6.00;3.20;;;21.90;73.50;;;;;;4188546;28;20047;-44
2023/09/02 12:51:04;;;;;;;7.32;4.13;;;21.90;73.70;;;;;;4177771;28;20059;-45
2023/09/02 12:53:46;;;;;;;4.18;3.70;;;21.90;73.60;;;;;;4189680;28;20047;-47
2023/09/02 12:56:27;;;;;;;5.28;4.30;;;22.00;73.70;;;;;;4189563;28;20395;-46
2023/09/02 12:59:08;;;;;;;5.03;4.53;;;22.00;74.50;;;;;;4189863;28;20047;-46
2023/09/02 13:01:52;;;;;;;4.72;3.45;;;22.00;73.40;;;;;;4188392;28;20056;-44
2023/09/02 13:04:33;;;;;;;5.80;4.05;;;22.00;73.40;;;;;;4188492;28;20408;-38
2023/09/02 13:07:17;;;;;;;4.53;3.00;;;22.00;73.70;;;;;;4189772;28;20118;-38
2023/09/02 13:09:59;;;;;;;3.35;3.05;;;22.00;73.70;;;;;;4189738;28;20125;-38
2023/09/02 13:12:41;;;;;;;3.80;3.10;;;22.10;73.70;;;;;;4189618;28;20059;-38
2023/09/02 13:15:24;;;;;;;5.60;3.53;;;22.10;73.90;;;;;;4189193;28;20415;-42
2023/09/02 13:18:06;;;;;;;4.50;3.58;;;22.10;73.60;;;;;;4189587;28;20055;-42
2023/09/02 13:20:47;;;;;;;;;;;22.00;73.50;;;;;;4189349;28;20560;-43
2023/09/02 13:23:31;;;;;;;3.60;2.60;;;22.10;73.60;;;;;;4189587;28;20397;-37
2023/09/02 13:26:14;;;;;;;4.65;3.72;;;22.10;73.80;;;;;;4188757;28;20528;-39
2023/09/02 13:28:56;;;;;;;3.72;3.42;;;22.10;73.90;;;;;;4188775;28;20182;-38
2023/09/02 13:31:37;;;;;;;4.22;3.75;;;22.10;73.80;;;;;;4172846;28;20056;-38
2023/09/02 13:34:29;;;;;;;4.45;3.35;;;22.10;73.40;;;;;;4180889;28;20064;-39
2023/09/02 13:37:20;;;;;;;6.28;3.75;;;22.10;73.20;;;;;;4171713;28;20079;-38
2023/09/02 13:40:28;;;;;;;8.75;3.90;;;22.10;73.00;;;;;;4171051;28;20183;-38
2023/09/02 13:43:18;;;;;;;4.05;3.65;;;22.20;72.60;;;;;;4171464;28;20055;-41
2023/09/02 13:46:00;;;;;;;4.00;3.63;;;22.20;72.90;;;;;;4182949;28;20040;-39
2023/09/02 13:48:41;;;;;;;5.35;3.88;;;22.20;72.80;;;;;;4187536;28;20597;-46
2023/09/02 13:51:22;;;;;;;4.95;4.35;;;22.20;72.60;;;;;;4188834;28;20186;-39
2023/09/02 13:54:03;;;;;;;6.93;3.58;;;22.20;72.50;;;;;;4187945;28;20063;-40
2023/09/02 13:56:46;;;;;;;4.57;3.40;;;22.10;72.70;;;;;;4186105;28;20469;-39
2023/09/02 13:59:27;;;;;;;11.23;3.67;;;22.10;72.80;;;;;;4188535;28;20055;-39
2023/09/02 14:02:14;;;;;;;5.65;3.60;;;22.10;72.80;;;;;;4188738;28;20407;-38
2023/09/02 14:04:56;;;;;;;4.82;3.65;;;22.10;73.40;;;;;;4188219;28;20052;-39